createdAt,value
2023-03-17T00:00:23.636Z,61.62
2023-03-17T00:03:51.180Z,61.90
2023-03-17T00:06:59.935Z,67.80
2023-03-17T00:10:14.321Z,71.18
2023-03-17T00:13:41.361Z,67.58
2023-03-17T00:17:12.048Z,61.64
2023-03-17T00:20:39.131Z,55.52
2023-03-17T00:24:07.053Z,54.70
2023-03-17T00:27:34.523Z,54.83
2023-03-17T00:31:03.792Z,56.42
2023-03-17T00:34:30.706Z,57.68
2023-03-17T00:37:57.594Z,59.25
2023-03-17T00:41:24.872Z,58.94
2023-03-17T00:44:53.855Z,60.22
2023-03-17T00:48:34.633Z,61.29
2023-03-17T00:52:02.464Z,61.73
2023-03-17T00:55:29.623Z,66.99
2023-03-17T00:59:03.829Z,70.66
2023-03-17T01:02:32.393Z,65.32
2023-03-17T01:05:52.011Z,60.64
2023-03-17T01:09:07.364Z,54.62
2023-03-17T01:12:43.248Z,54.55
2023-03-17T01:16:12.958Z,56.13
2023-03-17T01:19:21.431Z,57.62
2023-03-17T01:22:48.981Z,57.86
2023-03-17T01:25:59.038Z,58.63
2023-03-17T01:29:17.510Z,59.84
2023-03-17T01:32:53.142Z,60.66
2023-03-17T01:35:45.424Z,61.66
2023-03-17T01:39:03.474Z,61.81
2023-03-17T01:42:18.310Z,68.03
2023-03-17T01:46:03.550Z,70.77
2023-03-17T01:49:21.634Z,62.38
2023-03-17T01:53:04.875Z,54.50
2023-03-17T01:56:51.929Z,53.94
2023-03-17T02:03:58.254Z,57.14
2023-03-17T02:07:25.266Z,58.44
2023-03-17T02:10:52.514Z,58.70
2023-03-17T02:14:20.126Z,59.19
2023-03-17T02:18:07.186Z,59.97
2023-03-17T02:21:42.090Z,61.16
2023-03-17T02:25:16.129Z,61.67
2023-03-17T02:29:06.074Z,70.42
2023-03-17T02:32:32.864Z,68.72
2023-03-17T02:36:19.741Z,60.43
2023-03-17T02:40:06.578Z,52.52
2023-03-17T02:43:48.262Z,53.37
2023-03-17T02:47:15.063Z,55.72
2023-03-17T02:50:42.468Z,56.13
2023-03-17T02:54:19.303Z,58.59
2023-03-17T02:58:06.149Z,58.83
2023-03-17T03:01:33.413Z,59.98
2023-03-17T03:05:01.198Z,59.90
2023-03-17T03:08:32.551Z,61.03
2023-03-17T03:12:19.723Z,61.82
2023-03-17T03:15:39.667Z,69.12
2023-03-17T03:19:08.132Z,70.33
2023-03-17T03:22:35.246Z,63.36
2023-03-17T03:26:04.982Z,56.35
2023-03-17T03:29:32.265Z,53.58
2023-03-17T03:33:00.374Z,55.03
2023-03-17T03:36:36.227Z,56.61
2023-03-17T03:40:10.446Z,57.74
2023-03-17T03:43:38.030Z,58.53
2023-03-17T03:47:05.054Z,59.44
2023-03-17T03:50:33.794Z,60.09
2023-03-17T03:54:20.722Z,60.97
2023-03-17T03:57:49.121Z,61.48
2023-03-17T04:01:16.620Z,67.35
2023-03-17T04:04:43.307Z,71.97
2023-03-17T04:07:52.345Z,63.57
2023-03-17T04:10:45.264Z,54.77
2023-03-17T04:13:52.439Z,53.53
2023-03-17T04:17:00.407Z,55.09
2023-03-17T04:19:47.920Z,56.62
2023-03-17T04:22:47.483Z,57.88
2023-03-17T04:25:54.252Z,58.79
2023-03-17T04:29:21.137Z,59.12
2023-03-17T04:32:19.552Z,60.01
2023-03-17T04:35:55.148Z,60.78
2023-03-17T04:39:02.445Z,61.21
2023-03-17T04:42:11.623Z,61.79
2023-03-17T04:45:38.574Z,69.84
2023-03-17T04:49:25.560Z,72.53
2023-03-17T04:53:03.412Z,62.70
2023-03-17T04:56:11.358Z,60.12
2023-03-17T04:59:00.493Z,56.38
2023-03-17T05:02:12.057Z,54.21
2023-03-17T05:05:24.399Z,55.69
2023-03-17T05:08:51.309Z,57.63
2023-03-17T05:11:42.516Z,58.60
2023-03-17T05:15:09.616Z,58.93
2023-03-17T05:18:31.932Z,60.46
2023-03-17T05:21:47.135Z,61.32
2023-03-17T05:25:13.640Z,65.52
2023-03-17T05:28:40.864Z,72.18
2023-03-17T05:32:07.764Z,64.21
2023-03-17T05:35:38.041Z,59.21
2023-03-17T05:39:06.949Z,55.37
2023-03-17T05:42:33.806Z,56.78
2023-03-17T05:46:23.464Z,58.56
2023-03-17T05:50:08.351Z,59.42
2023-03-17T05:53:56.247Z,60.78
2023-03-17T05:57:45.166Z,60.41
2023-03-17T06:01:32.916Z,61.51
2023-03-17T06:05:20.788Z,70.53
2023-03-17T06:09:07.565Z,71.88
2023-03-17T06:12:55.620Z,65.76
2023-03-17T06:16:45.925Z,64.24
2023-03-17T06:24:27.013Z,62.99
2023-03-17T06:32:20.360Z,54.93
2023-03-17T06:35:59.097Z,55.00
2023-03-17T06:39:46.716Z,56.40
2023-03-17T06:43:35.467Z,57.54
2023-03-17T06:47:24.800Z,59.89
2023-03-17T06:51:10.549Z,60.08
2023-03-17T06:55:01.196Z,63.59
2023-03-17T06:58:48.064Z,66.77
2023-03-17T07:02:39.348Z,62.80
2023-03-17T07:06:27.089Z,52.59
2023-03-17T07:10:14.568Z,53.21
2023-03-17T07:14:01.770Z,56.41
2023-03-17T07:17:49.292Z,57.25
2023-03-17T07:21:36.485Z,56.55
2023-03-17T07:25:25.019Z,57.01
2023-03-17T07:29:11.895Z,56.59
2023-03-17T07:32:44.784Z,56.76
2023-03-17T07:36:12.233Z,57.21
2023-03-17T07:39:44.763Z,56.82
2023-03-17T07:42:34.497Z,56.11
2023-03-17T07:45:26.071Z,56.46
2023-03-17T07:48:00.811Z,56.36
2023-03-17T07:50:30.342Z,56.28
2023-03-17T07:53:19.002Z,54.99
2023-03-17T07:56:12.280Z,54.98
2023-03-17T07:59:28.949Z,54.89
2023-03-17T08:02:30.212Z,55.21
2023-03-17T08:05:17.807Z,54.41
2023-03-17T08:08:04.986Z,54.50
2023-03-17T08:10:54.223Z,53.83
2023-03-17T08:13:27.539Z,54.08
2023-03-17T08:15:59.676Z,53.94
2023-03-17T08:18:27.631Z,53.87
2023-03-17T08:21:00.897Z,52.64
2023-03-17T08:23:51.616Z,52.55
2023-03-17T08:26:25.144Z,52.27
2023-03-17T08:28:52.900Z,51.98
2023-03-17T08:31:24.569Z,51.50
2023-03-17T08:33:58.253Z,51.08
2023-03-17T08:36:46.368Z,48.24
2023-03-17T08:39:18.079Z,48.51
2023-03-17T08:41:46.780Z,47.00
2023-03-17T08:44:17.608Z,48.40
2023-03-17T08:46:45.355Z,48.20
2023-03-17T08:49:13.477Z,45.12
2023-03-17T08:51:42.800Z,44.57
2023-03-17T08:54:11.599Z,45.84
2023-03-17T08:56:41.335Z,44.23
2023-03-17T08:59:20.329Z,42.82
2023-03-17T09:02:08.044Z,43.28
2023-03-17T09:04:40.077Z,43.57
2023-03-17T09:07:29.100Z,43.02
2023-03-17T09:10:01.337Z,42.23
2023-03-17T09:12:29.409Z,40.03
2023-03-17T09:14:58.075Z,39.87
2023-03-17T09:17:30.652Z,40.04
2023-03-17T09:20:17.872Z,39.53
2023-03-17T09:22:48.263Z,38.71
2023-03-17T09:25:20.262Z,39.04
2023-03-17T09:27:49.059Z,37.37
2023-03-17T09:30:20.251Z,38.07
2023-03-17T09:32:47.718Z,37.75
2023-03-17T09:35:15.678Z,37.63
2023-03-17T09:37:43.355Z,36.72
2023-03-17T09:40:28.551Z,36.97
2023-03-17T09:43:30.816Z,36.06
2023-03-17T09:46:28.793Z,31.79
2023-03-17T09:49:08.004Z,32.05
2023-03-17T09:51:39.307Z,32.28
2023-03-17T09:54:28.355Z,33.83
2023-03-17T09:57:07.079Z,33.18
2023-03-17T09:59:50.364Z,33.27
2023-03-17T10:02:50.456Z,34.32
2023-03-17T10:05:23.807Z,30.71
2023-03-17T10:08:30.068Z,31.05
2023-03-17T10:11:26.923Z,29.39
2023-03-17T10:14:10.691Z,29.95
2023-03-17T10:16:59.017Z,30.46
2023-03-17T10:19:57.227Z,31.85
2023-03-17T10:22:50.114Z,30.00
2023-03-17T10:25:39.062Z,29.86
2023-03-17T10:28:27.128Z,27.43
2023-03-17T10:31:11.656Z,30.61
2023-03-17T10:34:05.831Z,31.45
2023-03-17T10:36:47.654Z,30.48
2023-03-17T11:06:45.872Z,28.24
2023-03-17T11:09:57.963Z,28.89
2023-03-17T11:13:26.338Z,28.43
2023-03-17T11:16:18.213Z,28.70
2023-03-17T11:18:55.536Z,29.94
2023-03-17T11:22:35.111Z,29.14
2023-03-17T11:26:17.665Z,28.65
2023-03-17T11:30:14.823Z,26.58
2023-03-17T11:33:51.391Z,29.14
2023-03-17T11:37:45.505Z,29.32
2023-03-17T11:41:45.451Z,26.81
2023-03-17T11:46:00.285Z,27.66
2023-03-17T11:49:51.328Z,26.56
2023-03-17T11:53:42.361Z,27.53
2023-03-17T11:57:32.811Z,28.17
2023-03-17T12:01:32.798Z,28.68
2023-03-17T12:05:12.399Z,26.47
2023-03-17T12:12:32.453Z,26.98
2023-03-17T12:16:11.153Z,26.45
2023-03-17T12:19:48.499Z,27.28
2023-03-17T12:23:43.302Z,26.94
2023-03-17T12:27:52.632Z,27.02
2023-03-17T12:31:49.103Z,27.05
2023-03-17T12:35:52.605Z,27.41
2023-03-17T12:39:55.181Z,28.36
2023-03-17T12:43:52.305Z,29.09
2023-03-17T12:47:48.941Z,29.26
2023-03-17T12:51:45.470Z,27.56
2023-03-17T12:55:32.875Z,27.25
2023-03-17T12:59:26.653Z,28.20
2023-03-17T13:03:17.412Z,27.20
2023-03-17T13:07:04.754Z,27.17
2023-03-17T13:10:59.901Z,27.08
2023-03-17T13:14:50.674Z,28.51
2023-03-17T13:18:54.038Z,27.90
2023-03-17T13:22:43.247Z,28.88
2023-03-17T13:26:33.977Z,28.47
2023-03-17T13:30:13.614Z,29.22
2023-03-17T13:33:51.047Z,29.59
2023-03-17T13:37:44.086Z,29.91
2023-03-17T13:41:47.788Z,30.24
2023-03-17T13:45:38.569Z,30.01
2023-03-17T13:49:28.441Z,29.47
2023-03-17T13:53:19.723Z,29.00
2023-03-17T13:57:22.855Z,30.21
2023-03-17T14:01:12.225Z,30.27
2023-03-17T14:04:59.460Z,30.32
2023-03-17T14:08:59.809Z,30.98
2023-03-17T14:12:58.434Z,30.81
2023-03-17T14:16:57.484Z,30.54
2023-03-17T14:20:48.469Z,30.85
2023-03-17T14:24:35.671Z,30.92
2023-03-17T14:28:22.584Z,30.70
2023-03-17T14:31:54.692Z,31.02
2023-03-17T14:35:44.785Z,30.68
2023-03-17T14:38:53.990Z,31.37
2023-03-17T14:42:17.689Z,31.38
2023-03-17T14:45:46.824Z,31.77
2023-03-17T14:49:13.875Z,31.04
2023-03-17T14:52:38.633Z,30.98
2023-03-17T14:56:09.980Z,31.47
2023-03-17T14:59:22.444Z,31.38
2023-03-17T15:03:15.300Z,31.00
2023-03-17T15:06:37.459Z,30.84
2023-03-17T15:10:14.286Z,31.31
2023-03-17T15:13:22.893Z,31.64
2023-03-17T15:17:01.181Z,31.75
2023-03-17T15:20:35.936Z,32.05
2023-03-17T15:23:43.738Z,32.52
2023-03-17T15:27:10.724Z,32.58
2023-03-17T15:30:18.516Z,32.78
2023-03-17T15:33:48.520Z,32.82
2023-03-17T15:36:58.017Z,33.27
2023-03-17T15:40:25.067Z,33.95
2023-03-17T15:43:53.838Z,34.13
2023-03-17T15:47:21.330Z,34.40
2023-03-17T15:50:49.433Z,34.72
2023-03-17T15:53:59.476Z,34.76
2023-03-17T15:57:07.526Z,35.00
2023-03-17T16:00:19.354Z,35.34
2023-03-17T16:04:05.088Z,35.60
2023-03-17T16:07:25.383Z,35.55
2023-03-17T16:10:58.302Z,35.84
2023-03-17T16:14:25.323Z,35.92
2023-03-17T16:17:56.780Z,36.03
2023-03-17T16:21:18.458Z,36.01
2023-03-17T16:24:45.795Z,36.09
2023-03-17T16:27:47.930Z,36.76
2023-03-17T16:31:05.085Z,36.55
2023-03-17T16:34:57.817Z,36.59
2023-03-17T16:38:20.193Z,36.98
2023-03-17T16:41:23.176Z,36.51
2023-03-17T16:44:53.898Z,36.73
2023-03-17T16:47:31.302Z,36.75
2023-03-17T16:50:41.021Z,37.61
2023-03-17T16:53:56.167Z,37.76
2023-03-17T16:57:06.009Z,37.85
2023-03-17T17:00:34.361Z,37.69
2023-03-17T17:04:03.214Z,38.12
2023-03-17T17:07:30.317Z,38.15
2023-03-17T17:10:39.694Z,38.91
2023-03-17T17:14:20.945Z,38.74
2023-03-17T17:17:31.070Z,39.39
2023-03-17T17:21:09.800Z,40.39
2023-03-17T17:24:22.973Z,40.85
2023-03-17T17:27:54.149Z,41.18
2023-03-17T17:31:21.357Z,42.17
2023-03-17T17:34:50.363Z,42.41
2023-03-17T17:38:09.384Z,42.80
2023-03-17T17:41:21.472Z,43.60
2023-03-17T17:44:36.959Z,43.64
2023-03-17T17:47:35.600Z,44.15
2023-03-17T17:51:12.458Z,44.42
2023-03-17T17:55:00.086Z,44.02
2023-03-17T17:58:48.176Z,44.39
2023-03-17T18:02:06.590Z,45.23
2023-03-17T18:05:18.907Z,45.29
2023-03-17T18:08:28.152Z,45.08
2023-03-17T18:11:31.425Z,45.51
2023-03-17T18:14:33.996Z,45.70
2023-03-17T18:17:51.319Z,45.61
2023-03-17T18:21:07.064Z,45.71
2023-03-17T18:24:27.098Z,45.68
2023-03-17T18:28:01.541Z,46.16
2023-03-17T18:31:30.975Z,45.96
2023-03-17T18:35:15.972Z,46.51
2023-03-17T18:39:04.074Z,46.44
2023-03-17T18:42:52.212Z,46.63
2023-03-17T18:46:20.501Z,46.89
2023-03-17T18:49:55.942Z,46.84
2023-03-17T18:53:08.184Z,47.07
2023-03-17T18:56:30.311Z,47.20
2023-03-17T18:59:48.991Z,47.18
2023-03-17T19:02:58.705Z,46.66
2023-03-17T19:06:03.138Z,46.71
2023-03-17T19:09:30.870Z,47.17
2023-03-17T19:12:21.107Z,47.41
2023-03-17T19:15:16.436Z,47.46
2023-03-17T19:18:14.467Z,47.68
2023-03-17T19:21:09.843Z,47.57
2023-03-17T19:24:22.917Z,47.53
2023-03-17T19:28:01.763Z,47.31
2023-03-17T19:31:30.910Z,47.26
2023-03-17T19:34:59.048Z,47.55
2023-03-17T19:38:27.779Z,47.69
2023-03-17T19:41:18.946Z,47.61
2023-03-17T19:44:47.350Z,47.93
2023-03-17T19:47:36.446Z,47.96
2023-03-17T19:50:20.128Z,48.21
2023-03-17T19:53:31.061Z,48.25
2023-03-17T19:57:20.704Z,48.66
2023-03-17T20:00:55.287Z,48.72
2023-03-17T20:04:32.470Z,48.52
2023-03-17T20:08:00.444Z,48.65
2023-03-17T20:11:14.709Z,48.78
2023-03-17T20:14:29.195Z,48.78
2023-03-17T20:17:03.407Z,49.29
2023-03-17T20:19:57.712Z,49.35
2023-03-17T20:23:08.926Z,49.09
2023-03-17T20:25:53.541Z,48.96
2023-03-17T20:28:52.651Z,49.03
2023-03-17T20:32:00.588Z,49.19
2023-03-17T20:34:54.736Z,49.37
2023-03-17T20:37:26.319Z,49.34
2023-03-17T20:40:06.628Z,49.62
2023-03-17T20:42:58.162Z,49.31
2023-03-17T20:45:36.708Z,49.36
2023-03-17T20:48:28.427Z,49.32
2023-03-17T20:51:18.218Z,49.54
2023-03-17T20:54:18.156Z,49.38
2023-03-17T20:56:54.047Z,49.91
2023-03-17T20:59:25.180Z,49.83
2023-03-17T21:02:08.342Z,50.04
2023-03-17T21:04:42.671Z,50.04
2023-03-17T21:07:45.631Z,50.15
2023-03-17T21:10:24.178Z,50.25
2023-03-17T21:13:12.865Z,50.34
2023-03-17T21:15:54.975Z,50.82
2023-03-17T21:18:28.508Z,50.91
2023-03-17T21:21:01.198Z,51.14
2023-03-17T21:24:30.826Z,51.22
2023-03-17T21:27:38.823Z,51.09
2023-03-17T21:30:35.349Z,51.39
2023-03-17T21:33:36.453Z,51.50
2023-03-17T21:36:16.617Z,51.69
2023-03-17T21:39:26.596Z,51.89
2023-03-17T21:41:58.229Z,51.93
2023-03-17T21:44:28.678Z,52.40
2023-03-17T21:46:59.360Z,52.45
2023-03-17T21:49:32.902Z,52.72
2023-03-17T21:52:06.455Z,52.96
2023-03-17T21:54:37.978Z,53.22
2023-03-17T21:57:27.053Z,53.55
2023-03-17T22:00:14.501Z,53.73
2023-03-17T22:02:43.243Z,53.88
2023-03-17T22:05:31.153Z,53.87
2023-03-17T22:08:22.964Z,53.69
2023-03-17T22:10:52.068Z,53.59
2023-03-17T22:14:19.678Z,54.06
2023-03-17T22:17:52.161Z,54.42
2023-03-17T22:21:00.316Z,55.11
2023-03-17T22:24:28.107Z,55.16
2023-03-17T22:27:56.907Z,55.17
2023-03-17T22:31:23.837Z,55.26
2023-03-17T22:35:10.732Z,54.86
2023-03-17T22:38:57.596Z,55.24
2023-03-17T22:42:28.635Z,55.05
2023-03-17T22:45:55.768Z,55.09
2023-03-17T22:49:22.839Z,55.13
2023-03-17T22:52:49.796Z,55.08
2023-03-17T22:55:38.700Z,54.88
2023-03-17T22:59:05.659Z,55.12
2023-03-17T23:02:34.379Z,55.34
2023-03-17T23:06:07.774Z,55.52
2023-03-17T23:09:34.939Z,55.27
2023-03-17T23:12:49.556Z,55.47
2023-03-17T23:16:36.415Z,55.42
2023-03-17T23:19:45.349Z,55.38
2023-03-17T23:23:13.179Z,56.12
2023-03-17T23:26:32.784Z,55.77
2023-03-17T23:29:40.793Z,55.75
2023-03-17T23:32:51.045Z,56.15
2023-03-17T23:36:00.870Z,56.45
